Time;durP1;ratioP1;P1;durP2;ratioP2;P2;SDS_P1;SDS_P2;PMS_P1;PMS_P2;Temp;Humidity;BMP_temperature;BMP_pressure;BME280_temperature;BME280_humidity;BME280_pressure;Samples;Min_cycle;Max_cycle;Signal;HPM_P1;HPM_P2
2023/07/03 00:01:58;;;;;;;7.43;4.07;;;;;;;;;;5067448;28;20172;-54
2023/07/03 00:04:24;;;;;;;5.93;4.17;;;;;;;;;;5068486;28;20220;-53
2023/07/03 00:06:50;;;;;;;7.13;3.87;;;;;;;;;;5068288;28;20261;-54
2023/07/03 00:09:16;;;;;;;6.87;3.53;;;;;;;;;;5068665;28;20507;-53
2023/07/03 00:11:42;;;;;;;7.83;4.47;;;;;;;;;;5053630;28;20185;-53
2023/07/03 00:14:08;;;;;;;6.47;4.13;;;;;;;;;;5048087;28;20201;-54
2023/07/03 00:16:34;;;;;;;6.60;3.90;;;;;;;;;;5072033;28;20204;-53
2023/07/03 00:19:00;;;;;;;5.43;3.60;;;;;;;;;;5071432;28;20382;-53
2023/07/03 00:21:26;;;;;;;5.50;3.47;;;;;;;;;;5072570;28;20771;-54
2023/07/03 00:23:52;;;;;;;7.67;4.33;;;;;;;;;;5072246;28;20180;-54
2023/07/03 00:26:19;;;;;;;8.67;3.60;;;;;;;;;;5072328;28;20542;-53
2023/07/03 00:28:45;;;;;;;6.47;3.70;;;;;;;;;;5072229;28;20181;-54
2023/07/03 00:31:11;;;;;;;9.13;4.20;;;;;;;;;;5071372;28;20191;-54
2023/07/03 00:33:37;;;;;;;7.33;4.50;;;;;;;;;;5071070;28;20314;-53
2023/07/03 00:36:03;;;;;;;7.47;4.33;;;;;;;;;;5071756;28;20272;-54
2023/07/03 00:38:29;;;;;;;4.83;3.67;;;;;;;;;;5071524;28;20207;-54
2023/07/03 00:40:55;;;;;;;8.57;4.03;;;;;;;;;;5071185;28;20643;-56
2023/07/03 00:43:21;;;;;;;6.90;3.50;;;;;;;;;;5071196;28;20207;-54
2023/07/03 00:45:47;;;;;;;6.23;4.53;;;;;;;;;;5070936;28;20637;-55
2023/07/03 00:48:14;;;;;;;7.37;3.87;;;;;;;;;;5070658;28;20622;-54
2023/07/03 00:50:40;;;;;;;6.07;3.80;;;;;;;;;;5071200;28;20177;-54
2023/07/03 00:53:06;;;;;;;8.57;4.23;;;;;;;;;;5071857;28;20242;-55
2023/07/03 00:55:32;;;;;;;5.10;3.43;;;;;;;;;;5071682;28;20241;-54
2023/07/03 00:57:59;;;;;;;9.60;4.50;;;;;;;;;;5071366;28;20180;-54
2023/07/03 01:00:29;;;;;;;6.57;4.50;;;;;;;;;;5070993;28;20219;-54
2023/07/03 01:03:24;;;;;;;8.23;3.90;;;;;;;;;;5070524;28;20157;-54
2023/07/03 01:05:51;;;;;;;5.93;3.33;;;;;;;;;;5053929;28;20189;-55
2023/07/03 01:08:18;;;;;;;6.57;4.00;;;;;;;;;;5070991;28;20247;-53
2023/07/03 01:10:45;;;;;;;5.60;3.73;;;;;;;;;;5071351;28;20157;-54
2023/07/03 01:13:12;;;;;;;7.97;4.20;;;;;;;;;;5070867;28;20177;-54
2023/07/03 01:15:40;;;;;;;8.37;3.83;;;;;;;;;;5071191;28;20461;-55
2023/07/03 01:18:07;;;;;;;8.97;4.17;;;;;;;;;;5070792;28;20237;-54
2023/07/03 01:20:37;;;;;;;6.70;3.80;;;;;;;;;;5071204;28;20157;-56
2023/07/03 01:23:05;;;;;;;8.43;3.97;;;;;;;;;;5070947;28;20176;-55
2023/07/03 01:25:32;;;;;;;9.80;4.93;;;;;;;;;;5071299;28;20173;-54
2023/07/03 01:28:00;;;;;;;13.87;4.70;;;;;;;;;;5052704;28;20544;-55
2023/07/03 01:30:26;;;;;;;6.27;3.63;;;;;;;;;;5069428;28;20180;-55
2023/07/03 01:32:53;;;;;;;7.90;3.93;;;;;;;;;;5070268;28;20183;-56
2023/07/03 01:35:20;;;;;;;7.50;3.97;;;;;;;;;;5070781;28;20163;-55
2023/07/03 01:37:47;;;;;;;7.10;3.63;;;;;;;;;;5070839;28;20241;-54
2023/07/03 01:40:15;;;;;;;8.87;4.23;;;;;;;;;;5071187;28;20516;-54
2023/07/03 01:42:42;;;;;;;8.57;5.03;;;;;;;;;;5070881;28;20189;-55
2023/07/03 01:45:09;;;;;;;7.67;3.60;;;;;;;;;;5070525;28;20542;-56
2023/07/03 01:47:35;;;;;;;7.67;5.20;;;;;;;;;;5070015;28;20164;-55
2023/07/03 01:50:02;;;;;;;7.63;4.53;;;;;;;;;;5070785;28;20183;-57
2023/07/03 01:52:32;;;;;;;8.50;4.27;;;;;;;;;;5070800;28;20192;-56
2023/07/03 01:55:04;;;;;;;8.03;4.40;;;;;;;;;;5070679;28;20223;-55
2023/07/03 01:57:37;;;;;;;8.83;4.40;;;;;;;;;;5070607;28;20243;-55
2023/07/03 02:00:06;;;;;;;6.00;4.07;;;;;;;;;;5070559;28;20544;-55
2023/07/03 02:02:33;;;;;;;5.87;4.13;;;;;;;;;;5069785;28;20620;-55
2023/07/03 02:05:07;;;;;;;9.03;3.53;;;;;;;;;;5070450;28;20273;-54
2023/07/03 02:07:34;;;;;;;8.07;3.80;;;;;;;;;;5070319;28;20172;-55
2023/07/03 02:10:02;;;;;;;8.17;3.57;;;;;;;;;;5070449;28;20259;-54
2023/07/03 02:12:28;;;;;;;7.43;4.17;;;;;;;;;;5070263;28;20176;-54
2023/07/03 02:14:55;;;;;;;11.90;4.13;;;;;;;;;;5069835;28;20204;-56
2023/07/03 02:17:21;;;;;;;8.47;3.80;;;;;;;;;;5069360;28;20612;-54
2023/07/03 02:19:47;;;;;;;10.63;4.47;;;;;;;;;;5070698;28;20667;-55
2023/07/03 02:22:13;;;;;;;6.93;3.97;;;;;;;;;;5051660;28;20259;-55
2023/07/03 02:24:40;;;;;;;11.67;4.37;;;;;;;;;;5070029;28;20282;-53
2023/07/03 02:27:06;;;;;;;9.50;4.60;;;;;;;;;;5070216;28;20550;-56
2023/07/03 02:29:32;;;;;;;9.00;4.17;;;;;;;;;;5070208;28;20181;-55
2023/07/03 02:31:58;;;;;;;9.03;4.53;;;;;;;;;;5069318;28;20195;-55
2023/07/03 02:34:24;;;;;;;8.97;3.93;;;;;;;;;;5051663;28;20554;-54
2023/07/03 02:36:50;;;;;;;8.87;4.33;;;;;;;;;;5048407;28;20181;-54
2023/07/03 02:39:17;;;;;;;9.40;4.30;;;;;;;;;;5049717;28;20274;-54
2023/07/03 02:41:43;;;;;;;6.17;3.40;;;;;;;;;;5049718;28;20196;-54
2023/07/03 02:44:09;;;;;;;4.23;3.40;;;;;;;;;;5049528;28;20171;-55
2023/07/03 02:46:35;;;;;;;8.63;3.90;;;;;;;;;;5048105;28;20177;-55
2023/07/03 02:49:03;;;;;;;7.70;3.97;;;;;;;;;;5049394;28;20234;-54
2023/07/03 02:51:29;;;;;;;8.00;4.53;;;;;;;;;;5049728;28;20166;-54
2023/07/03 02:53:55;;;;;;;9.57;5.30;;;;;;;;;;5049491;28;20297;-54
2023/07/03 02:56:21;;;;;;;7.00;4.97;;;;;;;;;;5048798;28;20737;-54
2023/07/03 02:58:47;;;;;;;9.20;4.43;;;;;;;;;;5049335;28;20229;-54
2023/07/03 03:01:14;;;;;;;9.83;5.43;;;;;;;;;;5048539;28;20518;-54
2023/07/03 03:03:40;;;;;;;7.03;3.70;;;;;;;;;;5049282;28;20184;-53
2023/07/03 03:06:07;;;;;;;6.00;4.07;;;;;;;;;;5068776;28;20573;-54
2023/07/03 03:08:33;;;;;;;8.53;3.67;;;;;;;;;;5068655;28;20226;-54
2023/07/03 03:11:00;;;;;;;8.57;4.13;;;;;;;;;;5068582;28;20168;-54
2023/07/03 03:13:26;;;;;;;7.30;4.40;;;;;;;;;;5068975;28;20513;-53
2023/07/03 03:15:52;;;;;;;7.10;3.67;;;;;;;;;;5068973;28;20162;-53
2023/07/03 03:18:18;;;;;;;7.77;4.87;;;;;;;;;;5068419;28;20169;-54
2023/07/03 03:20:44;;;;;;;9.23;4.07;;;;;;;;;;5069118;28;20631;-54
2023/07/03 03:23:10;;;;;;;6.77;3.83;;;;;;;;;;5068225;28;20172;-55
2023/07/03 03:25:37;;;;;;;8.00;3.90;;;;;;;;;;5068040;28;20165;-53
2023/07/03 03:28:04;;;;;;;9.80;4.80;;;;;;;;;;5067585;28;20165;-55
2023/07/03 03:30:30;;;;;;;10.43;4.50;;;;;;;;;;5049923;28;20180;-55
2023/07/03 03:32:58;;;;;;;8.90;4.10;;;;;;;;;;5050310;28;20178;-54
2023/07/03 03:35:25;;;;;;;8.27;4.00;;;;;;;;;;5068683;28;20190;-55
2023/07/03 03:37:51;;;;;;;8.30;4.53;;;;;;;;;;5068807;28;20166;-55
2023/07/03 03:40:17;;;;;;;9.07;5.23;;;;;;;;;;5068901;28;20180;-54
2023/07/03 03:42:44;;;;;;;6.57;4.07;;;;;;;;;;5069175;28;20169;-55
2023/07/03 03:45:13;;;;;;;9.47;4.20;;;;;;;;;;5068509;28;20623;-55
2023/07/03 03:47:40;;;;;;;7.77;3.73;;;;;;;;;;5068102;28;20215;-55
2023/07/03 03:50:07;;;;;;;8.80;4.00;;;;;;;;;;5067303;28;20187;-54
2023/07/03 03:52:33;;;;;;;8.77;3.97;;;;;;;;;;5067500;28;20188;-54
2023/07/03 03:54:59;;;;;;;8.07;4.20;;;;;;;;;;5068685;28;20212;-54
2023/07/03 03:57:25;;;;;;;8.03;4.00;;;;;;;;;;5068521;28;20235;-54
2023/07/03 03:59:52;;;;;;;9.53;4.33;;;;;;;;;;5068971;28;20179;-54
2023/07/03 04:02:18;;;;;;;9.27;5.73;;;;;;;;;;5049542;28;20271;-54
2023/07/03 04:04:44;;;;;;;10.40;4.60;;;;;;;;;;5058638;28;20209;-55
2023/07/03 04:07:12;;;;;;;12.47;6.40;;;;;;;;;;5048661;28;20165;-56
2023/07/03 04:09:38;;;;;;;8.23;4.37;;;;;;;;;;5054217;28;20184;-54
2023/07/03 04:12:05;;;;;;;8.70;3.90;;;;;;;;;;5068457;28;20667;-55
2023/07/03 04:14:31;;;;;;;8.40;4.30;;;;;;;;;;5050330;28;20706;-55
2023/07/03 04:16:59;;;;;;;9.03;4.27;;;;;;;;;;5067053;28;20169;-54
2023/07/03 04:19:26;;;;;;;11.00;5.20;;;;;;;;;;5068379;28;20195;-54
2023/07/03 04:21:53;;;;;;;9.17;3.70;;;;;;;;;;5068494;28;20215;-55
2023/07/03 04:24:19;;;;;;;8.73;4.50;;;;;;;;;;5068473;28;20184;-55
2023/07/03 04:26:45;;;;;;;9.43;4.90;;;;;;;;;;5068457;28;20293;-54
2023/07/03 04:29:12;;;;;;;13.87;5.10;;;;;;;;;;5068237;28;20168;-54
2023/07/03 04:31:39;;;;;;;7.97;4.40;;;;;;;;;;5068177;28;20171;-54
2023/07/03 04:34:05;;;;;;;7.73;4.37;;;;;;;;;;5068005;28;20279;-54
2023/07/03 04:36:32;;;;;;;10.53;4.30;;;;;;;;;;5068407;28;20197;-55
2023/07/03 04:39:00;;;;;;;11.77;5.10;;;;;;;;;;5067824;28;20178;-54
2023/07/03 04:41:27;;;;;;;11.13;4.53;;;;;;;;;;5068387;28;20172;-55
2023/07/03 04:43:57;;;;;;;9.77;4.40;;;;;;;;;;5068286;28;20562;-56
2023/07/03 04:46:26;;;;;;;10.77;5.23;;;;;;;;;;5067695;28;20206;-54
2023/07/03 04:49:00;;;;;;;9.43;4.00;;;;;;;;;;5067275;28;20203;-55
2023/07/03 04:51:30;;;;;;;9.40;4.27;;;;;;;;;;5068014;28;20632;-55
2023/07/03 04:54:00;;;;;;;11.17;4.70;;;;;;;;;;5068401;28;20224;-56
2023/07/03 04:56:26;;;;;;;11.87;5.00;;;;;;;;;;5067773;28;20251;-54
2023/07/03 04:58:53;;;;;;;10.93;5.00;;;;;;;;;;5068017;28;20581;-54
2023/07/03 05:01:19;;;;;;;10.23;4.27;;;;;;;;;;5069397;28;20238;-55
2023/07/03 05:03:46;;;;;;;8.63;4.30;;;;;;;;;;5052734;28;20273;-53
2023/07/03 05:06:13;;;;;;;10.13;5.37;;;;;;;;;;5071420;28;20268;-55
2023/07/03 05:08:39;;;;;;;10.30;4.63;;;;;;;;;;5053153;28;20648;-54
2023/07/03 05:11:05;;;;;;;9.17;4.23;;;;;;;;;;5071120;28;20559;-55
2023/07/03 05:13:31;;;;;;;16.10;5.07;;;;;;;;;;5071341;28;20257;-55
2023/07/03 05:15:58;;;;;;;11.83;4.23;;;;;;;;;;5070895;28;20168;-55
2023/07/03 05:18:24;;;;;;;8.77;3.93;;;;;;;;;;5070488;28;20254;-54
2023/07/03 05:20:51;;;;;;;10.67;4.50;;;;;;;;;;5069876;28;20175;-55
2023/07/03 05:23:17;;;;;;;8.17;4.10;;;;;;;;;;5069323;28;20636;-54
2023/07/03 05:25:44;;;;;;;12.73;4.70;;;;;;;;;;5069943;28;20248;-55
2023/07/03 05:28:11;;;;;;;13.93;4.83;;;;;;;;;;5069932;28;20607;-56
2023/07/03 05:30:38;;;;;;;11.67;5.60;;;;;;;;;;5069567;28;20172;-54
2023/07/03 05:33:05;;;;;;;10.00;3.77;;;;;;;;;;5069058;28;20176;-56
2023/07/03 05:35:31;;;;;;;11.47;4.80;;;;;;;;;;5052251;28;20173;-54
2023/07/03 05:38:00;;;;;;;10.83;5.07;;;;;;;;;;5052638;28;20176;-55
2023/07/03 05:40:27;;;;;;;9.53;4.43;;;;;;;;;;5071308;28;20230;-57
2023/07/03 05:42:54;;;;;;;11.43;4.63;;;;;;;;;;5071194;28;20196;-55
2023/07/03 05:45:20;;;;;;;10.53;4.57;;;;;;;;;;5070582;28;20263;-54
2023/07/03 05:47:47;;;;;;;9.07;4.67;;;;;;;;;;5070503;28;20516;-54
2023/07/03 05:50:13;;;;;;;15.70;4.97;;;;;;;;;;5070694;28;20176;-54
2023/07/03 05:52:41;;;;;;;10.17;4.33;;;;;;;;;;5070789;28;20173;-54
2023/07/03 05:55:08;;;;;;;10.17;4.40;;;;;;;;;;5070695;28;20305;-58
2023/07/03 05:57:34;;;;;;;11.07;4.40;;;;;;;;;;5069915;28;20651;-58
2023/07/03 06:00:01;;;;;;;9.63;4.37;;;;;;;;;;5069877;28;20187;-58
2023/07/03 06:02:27;;;;;;;12.67;5.13;;;;;;;;;;5068759;28;20161;-58
2023/07/03 06:04:53;;;;;;;12.97;5.37;;;;;;;;;;5058520;28;20704;-59
2023/07/03 06:07:19;;;;;;;11.27;5.00;;;;;;;;;;5049495;28;20582;-58
2023/07/03 06:09:45;;;;;;;11.03;4.87;;;;;;;;;;5049847;28;20181;-58
2023/07/03 06:12:11;;;;;;;10.57;4.93;;;;;;;;;;5048760;28;20268;-58
2023/07/03 06:14:37;;;;;;;11.50;4.93;;;;;;;;;;5049961;28;20197;-59
2023/07/03 06:17:04;;;;;;;9.70;4.50;;;;;;;;;;5048577;28;20704;-59
2023/07/03 06:19:30;;;;;;;9.90;4.00;;;;;;;;;;5049305;28;20588;-59
2023/07/03 06:21:56;;;;;;;9.20;4.70;;;;;;;;;;5049393;28;20175;-58
2023/07/03 06:24:23;;;;;;;9.83;4.50;;;;;;;;;;5049340;28;20182;-59
2023/07/03 06:26:50;;;;;;;11.30;4.60;;;;;;;;;;5049406;28;20177;-59
2023/07/03 06:29:17;;;;;;;12.40;5.13;;;;;;;;;;5048364;28;20744;-59
2023/07/03 06:31:43;;;;;;;8.40;4.77;;;;;;;;;;5049063;28;20530;-59
2023/07/03 06:34:09;;;;;;;9.03;4.20;;;;;;;;;;5048858;28;20226;-58
2023/07/03 06:36:35;;;;;;;9.50;4.40;;;;;;;;;;5049587;28;20253;-58
2023/07/03 06:39:04;;;;;;;16.73;5.10;;;;;;;;;;5049201;28;20170;-58
2023/07/03 06:41:32;;;;;;;10.17;4.90;;;;;;;;;;5048988;28;20178;-59
2023/07/03 06:43:58;;;;;;;8.97;4.60;;;;;;;;;;5049011;28;20173;-58
2023/07/03 06:46:24;;;;;;;11.83;4.97;;;;;;;;;;5048662;28;20808;-59
2023/07/03 06:48:50;;;;;;;10.23;4.63;;;;;;;;;;5048468;28;20534;-59
2023/07/03 06:51:16;;;;;;;10.07;5.20;;;;;;;;;;5048454;28;20223;-59
2023/07/03 06:53:42;;;;;;;7.63;4.43;;;;;;;;;;5048745;28;20204;-59
2023/07/03 06:56:09;;;;;;;14.17;5.03;;;;;;;;;;5048802;28;20246;-58
2023/07/03 06:58:36;;;;;;;12.13;4.77;;;;;;;;;;5049173;28;20165;-58
2023/07/03 07:01:06;;;;;;;9.80;3.80;;;;;;;;;;5048360;28;20636;-58
2023/07/03 07:03:32;;;;;;;13.63;5.50;;;;;;;;;;5047770;28;20411;-58
2023/07/03 07:05:58;;;;;;;12.05;5.28;;;;;;;;;;5067965;28;20398;-57
2023/07/03 07:08:24;;;;;;;12.50;5.17;;;;;;;;;;5069022;28;20735;-56
2023/07/03 07:10:51;;;;;;;14.97;5.03;;;;;;;;;;5068444;28;20164;-59
2023/07/03 07:13:17;;;;;;;11.50;5.60;;;;;;;;;;5068020;28;20204;-57
2023/07/03 07:15:43;;;;;;;15.77;5.23;;;;;;;;;;5067755;28;20180;-58
2023/07/03 07:18:09;;;;;;;12.67;4.90;;;;;;;;;;5049406;28;20220;-58
2023/07/03 07:20:39;;;;;;;13.37;5.20;;;;;;;;;;5068023;28;20169;-57
2023/07/03 07:23:05;;;;;;;11.33;5.17;;;;;;;;;;5067947;28;20522;-57
2023/07/03 07:25:31;;;;;;;14.03;5.77;;;;;;;;;;5068505;28;20184;-58
2023/07/03 07:27:58;;;;;;;10.53;5.40;;;;;;;;;;5068295;28;20191;-57
2023/07/03 07:30:24;;;;;;;16.10;5.60;;;;;;;;;;5067779;28;20169;-58
2023/07/03 07:32:50;;;;;;;9.43;4.63;;;;;;;;;;5067922;28;20160;-58
2023/07/03 07:35:16;;;;;;;11.63;4.77;;;;;;;;;;5067786;28;20200;-57
2023/07/03 07:37:43;;;;;;;10.70;4.80;;;;;;;;;;5068307;28;20168;-58
2023/07/03 07:40:09;;;;;;;12.30;5.40;;;;;;;;;;5068155;28;20229;-57
2023/07/03 07:42:36;;;;;;;13.13;5.50;;;;;;;;;;5068010;28;20511;-57
2023/07/03 07:45:02;;;;;;;12.73;5.20;;;;;;;;;;5068315;28;20226;-58
2023/07/03 07:47:29;;;;;;;14.40;6.00;;;;;;;;;;5067180;28;20175;-58
2023/07/03 07:49:55;;;;;;;9.77;4.60;;;;;;;;;;5068181;28;20218;-58
2023/07/03 07:52:23;;;;;;;11.00;5.13;;;;;;;;;;5068524;28;20615;-58
2023/07/03 07:54:53;;;;;;;11.43;5.47;;;;;;;;;;5068852;28;20596;-58
2023/07/03 07:57:20;;;;;;;10.63;5.07;;;;;;;;;;5067910;28;20228;-58
2023/07/03 07:59:46;;;;;;;12.17;4.67;;;;;;;;;;5068589;28;20168;-57
2023/07/03 08:02:12;;;;;;;11.43;5.20;;;;;;;;;;5066467;28;20153;-58
2023/07/03 08:04:38;;;;;;;13.10;5.20;;;;;;;;;;5067537;28;20656;-58
2023/07/03 08:07:04;;;;;;;12.13;5.27;;;;;;;;;;5067761;28;20174;-57
2023/07/03 08:09:30;;;;;;;11.37;4.83;;;;;;;;;;5068411;28;20180;-57
2023/07/03 08:11:56;;;;;;;10.07;4.23;;;;;;;;;;5049123;28;20238;-56
2023/07/03 08:14:22;;;;;;;12.53;4.67;;;;;;;;;;5067741;28;20673;-58
2023/07/03 08:16:49;;;;;;;10.07;4.87;;;;;;;;;;5066733;28;20168;-58
2023/07/03 08:19:15;;;;;;;11.03;4.93;;;;;;;;;;5067337;28;20573;-57
2023/07/03 08:21:41;;;;;;;11.77;4.27;;;;;;;;;;5067541;28;20255;-58
2023/07/03 08:24:07;;;;;;;7.10;3.90;;;;;;;;;;5067381;28;20172;-58
2023/07/03 08:26:33;;;;;;;12.83;4.97;;;;;;;;;;5067797;28;20234;-58
2023/07/03 08:28:59;;;;;;;13.73;5.07;;;;;;;;;;5067592;28;20172;-58
2023/07/03 08:31:25;;;;;;;11.73;4.77;;;;;;;;;;5067157;28;20173;-58
2023/07/03 08:33:52;;;;;;;11.30;5.47;;;;;;;;;;5066637;28;20196;-58
2023/07/03 08:36:18;;;;;;;7.83;3.60;;;;;;;;;;5068904;28;20211;-58
2023/07/03 08:38:45;;;;;;;11.27;4.90;;;;;;;;;;5071816;28;20284;-58
2023/07/03 08:41:13;;;;;;;13.30;5.40;;;;;;;;;;5071136;28;20168;-58
2023/07/03 08:43:44;;;;;;;15.50;4.70;;;;;;;;;;5071268;28;20177;-58
2023/07/03 08:46:12;;;;;;;11.37;4.00;;;;;;;;;;5070736;28;20161;-58
2023/07/03 08:48:39;;;;;;;8.40;4.27;;;;;;;;;;5070217;28;20167;-58
2023/07/03 08:51:07;;;;;;;9.07;3.63;;;;;;;;;;5071403;28;20173;-59
2023/07/03 08:53:39;;;;;;;9.20;4.30;;;;;;;;;;5071210;28;20272;-58
2023/07/03 08:56:08;;;;;;;13.07;4.77;;;;;;;;;;5071042;28;20405;-58
2023/07/03 08:58:34;;;;;;;11.33;5.07;;;;;;;;;;5071257;28;20645;-58
2023/07/03 09:01:18;;;;;;;11.23;4.43;;;;;;;;;;5070344;28;20180;-58
2023/07/03 09:03:44;;;;;;;7.37;3.97;;;;;;;;;;5067953;28;20216;-58
2023/07/03 09:06:23;;;;;;;8.47;4.17;;;;;;;;;;5050967;28;20173;-58
2023/07/03 09:08:56;;;;;;;8.73;4.47;;;;;;;;;;5050656;28;20169;-58
2023/07/03 09:11:23;;;;;;;10.60;4.63;;;;;;;;;;5050965;28;20212;-58
2023/07/03 09:13:51;;;;;;;8.27;3.53;;;;;;;;;;5050293;28;20198;-57
2023/07/03 09:16:19;;;;;;;5.30;3.60;;;;;;;;;;5050503;28;20205;-58
2023/07/03 09:18:52;;;;;;;14.77;4.17;;;;;;;;;;5050259;28;20176;-58
2023/07/03 09:21:18;;;;;;;7.83;4.47;;;;;;;;;;5050597;28;20621;-58
2023/07/03 09:23:51;;;;;;;11.30;4.17;;;;;;;;;;5051031;28;20202;-58
2023/07/03 09:26:24;;;;;;;7.00;4.20;;;;;;;;;;5049163;28;20242;-57
2023/07/03 09:28:50;;;;;;;7.67;3.73;;;;;;;;;;5050188;28;20597;-57
2023/07/03 09:31:16;;;;;;;7.43;3.97;;;;;;;;;;5049720;28;20662;-57
2023/07/03 09:33:42;;;;;;;11.07;4.07;;;;;;;;;;5049437;28;20551;-58
2023/07/03 09:36:24;;;;;;;8.00;4.40;;;;;;;;;;5050525;28;20168;-57
2023/07/03 09:38:50;;;;;;;12.43;5.37;;;;;;;;;;5049975;28;20180;-57
2023/07/03 09:41:23;;;;;;;10.57;4.33;;;;;;;;;;5050509;28;20168;-57
2023/07/03 09:43:49;;;;;;;9.37;4.50;;;;;;;;;;5049815;28;20175;-57
2023/07/03 09:46:16;;;;;;;9.83;4.67;;;;;;;;;;5049684;28;20184;-57
2023/07/03 09:48:43;;;;;;;9.00;5.03;;;;;;;;;;5049299;28;20181;-57
2023/07/03 09:51:26;;;;;;;9.27;4.30;;;;;;;;;;5050183;28;20169;-58
2023/07/03 09:53:53;;;;;;;11.70;4.20;;;;;;;;;;5050139;28;20642;-57
2023/07/03 09:56:22;;;;;;;9.73;4.70;;;;;;;;;;5049861;28;20234;-58
2023/07/03 09:58:51;;;;;;;10.87;4.30;;;;;;;;;;5049763;28;20171;-57
2023/07/03 10:01:23;;;;;;;11.37;4.63;;;;;;;;;;5049662;28;20298;-57
2023/07/03 10:04:00;;;;;;;9.57;3.40;;;;;;;;;;5051383;28;20496;-58
2023/07/03 10:06:28;;;;;;;6.60;3.30;;;;;;;;;;5069714;28;20256;-57
2023/07/03 10:08:54;;;;;;;7.67;3.83;;;;;;;;;;5069593;28;20520;-58
2023/07/03 10:11:24;;;;;;;7.30;3.97;;;;;;;;;;5069178;28;20185;-57
2023/07/03 10:13:53;;;;;;;8.83;3.80;;;;;;;;;;5069401;28;20614;-57
2023/07/03 10:16:21;;;;;;;5.67;3.10;;;;;;;;;;5069073;28;20159;-58
2023/07/03 10:18:48;;;;;;;11.97;4.07;;;;;;;;;;5068704;28;20584;-58
2023/07/03 10:21:16;;;;;;;5.17;3.17;;;;;;;;;;5069637;28;20265;-59
2023/07/03 10:23:45;;;;;;;7.63;3.70;;;;;;;;;;5051354;28;20181;-58
2023/07/03 10:26:18;;;;;;;8.33;2.80;;;;;;;;;;5051293;28;20562;-58
2023/07/03 10:28:48;;;;;;;10.43;3.83;;;;;;;;;;5069790;28;20153;-58
2023/07/03 10:31:38;;;;;;;7.70;3.80;;;;;;;;;;5069897;28;20633;-59
2023/07/03 10:34:06;;;;;;;7.20;3.40;;;;;;;;;;5068569;28;20196;-59
2023/07/03 10:36:34;;;;;;;7.73;4.13;;;;;;;;;;5069500;28;20187;-58
2023/07/03 10:39:00;;;;;;;7.40;3.60;;;;;;;;;;5069721;28;20178;-57
2023/07/03 10:41:32;;;;;;;6.73;3.20;;;;;;;;;;5069502;28;20516;-58
2023/07/03 10:44:06;;;;;;;7.17;3.37;;;;;;;;;;5069003;28;20206;-58
2023/07/03 10:46:42;;;;;;;8.43;4.63;;;;;;;;;;5068680;28;20166;-58
2023/07/03 10:49:13;;;;;;;7.83;3.67;;;;;;;;;;5067967;28;20193;-59
2023/07/03 10:51:39;;;;;;;4.47;3.07;;;;;;;;;;5068861;28;20231;-59
2023/07/03 10:54:17;;;;;;;6.27;3.17;;;;;;;;;;5068583;28;20280;-59
2023/07/03 10:56:47;;;;;;;6.37;3.90;;;;;;;;;;5068846;28;20636;-60
2023/07/03 10:59:14;;;;;;;5.57;3.07;;;;;;;;;;5068497;28;20177;-59
2023/07/03 11:01:48;;;;;;;5.60;3.30;;;;;;;;;;5068624;28;20204;-59
2023/07/03 11:04:33;;;;;;;5.53;3.10;;;;;;;;;;5062279;28;20679;-58
2023/07/03 11:06:59;;;;;;;5.70;3.10;;;;;;;;;;5047330;28;20252;-58
2023/07/03 11:09:37;;;;;;;4.23;2.83;;;;;;;;;;5048762;28;20172;-59
2023/07/03 11:12:13;;;;;;;5.30;3.37;;;;;;;;;;5048653;28;20204;-56
2023/07/03 11:14:46;;;;;;;8.47;3.87;;;;;;;;;;5048526;28;20207;-57
2023/07/03 11:17:31;;;;;;;6.93;3.70;;;;;;;;;;5047612;28;20173;-57
2023/07/03 11:20:08;;;;;;;6.87;4.17;;;;;;;;;;5048447;28;20320;-58
2023/07/03 11:22:42;;;;;;;6.07;3.23;;;;;;;;;;5048755;28;20624;-58
2023/07/03 11:25:11;;;;;;;8.20;3.63;;;;;;;;;;5048033;28;20553;-58
2023/07/03 11:27:44;;;;;;;6.50;3.53;;;;;;;;;;5048549;28;20497;-56
2023/07/03 11:30:11;;;;;;;6.33;3.87;;;;;;;;;;5047993;28;20165;-57
2023/07/03 11:32:38;;;;;;;6.07;3.90;;;;;;;;;;5047830;28;20619;-58
2023/07/03 11:35:06;;;;;;;7.87;4.70;;;;;;;;;;5048493;28;20550;-57
2023/07/03 11:37:59;;;;;;;8.13;4.23;;;;;;;;;;5046703;28;20184;-58
2023/07/03 11:40:29;;;;;;;7.87;3.87;;;;;;;;;;5048051;28;20531;-58
2023/07/03 11:43:15;;;;;;;8.03;3.80;;;;;;;;;;5048215;28;20581;-58
2023/07/03 11:45:48;;;;;;;9.70;4.03;;;;;;;;;;5047627;28;20189;-59
2023/07/03 11:48:27;;;;;;;9.27;4.40;;;;;;;;;;5047560;28;20196;-59
2023/07/03 11:51:11;;;;;;;7.43;3.87;;;;;;;;;;5048051;28;20168;-58
2023/07/03 11:53:38;;;;;;;9.37;4.63;;;;;;;;;;5047999;28;20196;-57
2023/07/03 11:56:05;;;;;;;6.27;4.00;;;;;;;;;;5047750;28;20231;-58
2023/07/03 11:58:33;;;;;;;6.60;3.70;;;;;;;;;;5047303;28;20586;-58
2023/07/03 12:01:17;;;;;;;9.70;4.60;;;;;;;;;;5046600;28;20574;-59
2023/07/03 12:03:51;;;;;;;8.20;3.90;;;;;;;;;;5047881;28;20693;-58
2023/07/03 12:06:37;;;;;;;9.23;4.43;;;;;;;;;;5067431;28;20520;-58
2023/07/03 12:09:25;;;;;;;9.57;4.83;;;;;;;;;;5066874;28;20260;-58
2023/07/03 12:11:59;;;;;;;7.97;4.43;;;;;;;;;;5069519;28;20272;-58
2023/07/03 12:15:14;;;;;;;8.37;4.30;;;;;;;;;;5070388;28;20565;-58
2023/07/03 12:17:34;;;;;;;9.27;4.90;;;;;;;;;;5065678;28;20180;-58
2023/07/03 12:20:19;;;;;;;10.23;4.70;;;;;;;;;;5070423;28;20168;-58
2023/07/03 12:22:47;;;;;;;6.87;4.77;;;;;;;;;;5070681;28;20650;-58
2023/07/03 12:25:25;;;;;;;9.07;4.10;;;;;;;;;;5070581;28;20184;-58
2023/07/03 12:27:52;;;;;;;10.43;5.10;;;;;;;;;;5070298;28;20182;-58
2023/07/03 12:30:24;;;;;;;9.00;4.87;;;;;;;;;;5069269;28;20951;-58
2023/07/03 12:32:51;;;;;;;12.03;4.67;;;;;;;;;;5051690;28;20259;-57
2023/07/03 12:35:18;;;;;;;7.00;4.10;;;;;;;;;;5070126;28;20220;-58
2023/07/03 12:37:49;;;;;;;6.00;3.57;;;;;;;;;;5052280;28;20605;-58
2023/07/03 12:40:17;;;;;;;6.07;4.37;;;;;;;;;;5070255;28;20581;-57
2023/07/03 12:42:51;;;;;;;10.10;4.83;;;;;;;;;;5070664;28;20257;-58
2023/07/03 12:45:22;;;;;;;7.50;4.27;;;;;;;;;;5069476;28;20166;-58
2023/07/03 12:48:06;;;;;;;5.73;4.30;;;;;;;;;;5070049;28;20521;-57
2023/07/03 12:50:52;;;;;;;8.40;4.67;;;;;;;;;;5070540;28;20173;-57
2023/07/03 12:53:19;;;;;;;7.00;4.57;;;;;;;;;;5070157;28;20181;-58
2023/07/03 12:55:48;;;;;;;10.43;4.67;;;;;;;;;;5026548;28;1250833;-58
2023/07/03 12:58:14;;;;;;;10.03;4.60;;;;;;;;;;5070990;28;20212;-57
2023/07/03 13:00:40;;;;;;;8.10;4.27;;;;;;;;;;5070611;28;20168;-58
2023/07/03 13:03:09;;;;;;;7.83;4.93;;;;;;;;;;5070162;28;20593;-58
2023/07/03 13:05:36;;;;;;;7.10;4.33;;;;;;;;;;5053645;28;20676;-58
2023/07/03 13:08:11;;;;;;;10.87;4.50;;;;;;;;;;5051043;28;20602;-58
2023/07/03 13:10:38;;;;;;;9.03;4.20;;;;;;;;;;5050647;28;20175;-58
2023/07/03 13:13:17;;;;;;;8.50;4.10;;;;;;;;;;5050562;28;20573;-58
2023/07/03 13:15:44;;;;;;;6.50;3.90;;;;;;;;;;5050447;28;20201;-59
2023/07/03 13:18:14;;;;;;;8.83;3.87;;;;;;;;;;5050093;28;20154;-58
2023/07/03 13:20:55;;;;;;;8.00;4.37;;;;;;;;;;5051020;28;20263;-58
2023/07/03 13:23:28;;;;;;;5.77;4.33;;;;;;;;;;5059441;28;20304;-58
2023/07/03 13:25:57;;;;;;;6.13;4.07;;;;;;;;;;5070669;28;20214;-58
2023/07/03 13:28:27;;;;;;;7.43;3.80;;;;;;;;;;5070666;28;20172;-57
2023/07/03 13:31:11;;;;;;;6.80;3.97;;;;;;;;;;5069936;28;20169;-58
2023/07/03 13:33:37;;;;;;;7.57;3.67;;;;;;;;;;5069463;28;20187;-58
2023/07/03 13:36:39;;;;;;;7.83;4.10;;;;;;;;;;5070107;28;20231;-58
2023/07/03 13:39:08;;;;;;;7.53;3.53;;;;;;;;;;4972327;28;20190;-58
2023/07/03 13:41:35;;;;;;;5.47;3.50;;;;;;;;;;5055725;28;20185;-59
2023/07/03 13:44:02;;;;;;;6.90;3.63;;;;;;;;;;5070599;28;20187;-59
2023/07/03 13:46:28;;;;;;;7.80;3.93;;;;;;;;;;5051876;28;20272;-59
2023/07/03 13:48:54;;;;;;;8.67;3.90;;;;;;;;;;5069386;28;20255;-59
2023/07/03 13:51:21;;;;;;;7.60;3.87;;;;;;;;;;5070057;28;20587;-59
2023/07/03 13:53:51;;;;;;;8.73;3.93;;;;;;;;;;5070113;28;20520;-59
2023/07/03 13:56:17;;;;;;;6.80;3.77;;;;;;;;;;5069922;28;20287;-59
2023/07/03 13:58:43;;;;;;;7.33;3.73;;;;;;;;;;5069736;28;20235;-59
2023/07/03 14:01:09;;;;;;;6.13;3.80;;;;;;;;;;5069387;28;20180;-58
2023/07/03 14:03:36;;;;;;;9.60;3.60;;;;;;;;;;5068448;28;20165;-59
2023/07/03 14:06:03;;;;;;;8.60;3.73;;;;;;;;;;5049910;28;20528;-59
2023/07/03 14:08:30;;;;;;;8.53;4.27;;;;;;;;;;5049842;28;20512;-58
2023/07/03 14:10:57;;;;;;;8.37;3.47;;;;;;;;;;5049442;28;20311;-59
2023/07/03 14:13:23;;;;;;;7.80;3.80;;;;;;;;;;5049343;28;20182;-59
2023/07/03 14:15:49;;;;;;;5.43;3.30;;;;;;;;;;5049122;28;20205;-59
2023/07/03 14:18:17;;;;;;;7.67;4.00;;;;;;;;;;5049017;28;20467;-58
2023/07/03 14:20:44;;;;;;;8.67;4.07;;;;;;;;;;5049808;28;20306;-59
2023/07/03 14:23:10;;;;;;;6.03;4.23;;;;;;;;;;5049658;28;20529;-58
2023/07/03 14:25:37;;;;;;;7.13;3.77;;;;;;;;;;5049863;28;20290;-58
2023/07/03 14:28:04;;;;;;;4.80;2.90;;;;;;;;;;5049198;28;20223;-58
2023/07/03 14:30:31;;;;;;;6.53;4.00;;;;;;;;;;5049139;28;20161;-57
2023/07/03 14:32:57;;;;;;;11.37;3.80;;;;;;;;;;5046741;28;20589;-57
2023/07/03 14:35:23;;;;;;;8.90;3.90;;;;;;;;;;5048572;28;20288;-58
2023/07/03 14:37:50;;;;;;;6.00;3.50;;;;;;;;;;5049405;28;20166;-57
2023/07/03 14:40:17;;;;;;;7.80;3.53;;;;;;;;;;5047741;28;20169;-58
2023/07/03 14:42:43;;;;;;;6.90;3.60;;;;;;;;;;5049295;28;20170;-57
2023/07/03 14:45:10;;;;;;;8.30;4.27;;;;;;;;;;5047140;28;20216;-57
2023/07/03 14:47:36;;;;;;;6.57;3.87;;;;;;;;;;5048632;28;20161;-57